sensor_id;sensor_type;location;lat;lon;timestamp;pressure;altitude;pressure_sealevel;temperature
60966;BMP180;46834;51.100;6.886;2022-10-26T00:00:47;100979.00;;;16.90
60966;BMP180;46834;51.100;6.886;2022-10-26T00:03:13;100989.00;;;16.90
60966;BMP180;46834;51.100;6.886;2022-10-26T00:05:39;100985.00;;;16.90
60966;BMP180;46834;51.100;6.886;2022-10-26T00:08:06;100980.00;;;16.90
60966;BMP180;46834;51.100;6.886;2022-10-26T00:10:37;100988.00;;;16.90
60966;BMP180;46834;51.100;6.886;2022-10-26T00:13:05;100983.00;;;16.90
60966;BMP180;46834;51.100;6.886;2022-10-26T00:15:31;100980.00;;;16.90
60966;BMP180;46834;51.100;6.886;2022-10-26T00:17:56;100977.00;;;16.90
60966;BMP180;46834;51.100;6.886;2022-10-26T00:20:22;100976.00;;;16.90
60966;BMP180;46834;51.100;6.886;2022-10-26T00:22:48;100985.00;;;16.90
60966;BMP180;46834;51.100;6.886;2022-10-26T00:25:14;100969.00;;;16.90
60966;BMP180;46834;51.100;6.886;2022-10-26T00:27:39;100972.00;;;16.90
60966;BMP180;46834;51.100;6.886;2022-10-26T00:30:06;100979.00;;;16.90
60966;BMP180;46834;51.100;6.886;2022-10-26T00:32:32;100969.00;;;16.90
60966;BMP180;46834;51.100;6.886;2022-10-26T00:34:59;100965.00;;;16.90
60966;BMP180;46834;51.100;6.886;2022-10-26T00:37:24;100958.00;;;16.90
60966;BMP180;46834;51.100;6.886;2022-10-26T00:39:50;100965.00;;;16.90
60966;BMP180;46834;51.100;6.886;2022-10-26T00:42:20;100966.00;;;16.90
60966;BMP180;46834;51.100;6.886;2022-10-26T00:44:56;100962.00;;;16.90
60966;BMP180;46834;51.100;6.886;2022-10-26T00:47:39;100966.00;;;16.80
60966;BMP180;46834;51.100;6.886;2022-10-26T00:50:15;100952.00;;;16.90
60966;BMP180;46834;51.100;6.886;2022-10-26T00:52:42;100962.00;;;16.90
60966;BMP180;46834;51.100;6.886;2022-10-26T00:55:08;100954.00;;;16.90
60966;BMP180;46834;51.100;6.886;2022-10-26T00:57:36;100955.00;;;16.90
60966;BMP180;46834;51.100;6.886;2022-10-26T01:00:06;100964.00;;;16.90
60966;BMP180;46834;51.100;6.886;2022-10-26T01:02:33;100964.00;;;16.90
60966;BMP180;46834;51.100;6.886;2022-10-26T01:05:02;100967.00;;;16.90
60966;BMP180;46834;51.100;6.886;2022-10-26T01:07:29;100956.00;;;16.90
60966;BMP180;46834;51.100;6.886;2022-10-26T01:09:55;100952.00;;;16.90
60966;BMP180;46834;51.100;6.886;2022-10-26T01:12:21;100943.00;;;16.90
60966;BMP180;46834;51.100;6.886;2022-10-26T01:14:47;100934.00;;;16.90
60966;BMP180;46834;51.100;6.886;2022-10-26T01:17:53;100947.00;;;16.90
60966;BMP180;46834;51.100;6.886;2022-10-26T01:26:16;100941.00;;;16.80
60966;BMP180;46834;51.100;6.886;2022-10-26T01:32:09;100930.00;;;16.80
60966;BMP180;46834;51.100;6.886;2022-10-26T01:34:59;100922.00;;;16.80
60966;BMP180;46834;51.100;6.886;2022-10-26T01:37:35;100926.00;;;16.80
60966;BMP180;46834;51.100;6.886;2022-10-26T01:40:10;100949.00;;;16.90
60966;BMP180;46834;51.100;6.886;2022-10-26T01:42:47;100952.00;;;16.90
60966;BMP180;46834;51.100;6.886;2022-10-26T01:45:16;100936.00;;;16.90
60966;BMP180;46834;51.100;6.886;2022-10-26T01:47:44;100945.00;;;16.90
60966;BMP180;46834;51.100;6.886;2022-10-26T01:50:11;100946.00;;;16.90
60966;BMP180;46834;51.100;6.886;2022-10-26T01:52:37;100939.00;;;16.90
60966;BMP180;46834;51.100;6.886;2022-10-26T01:58:37;100944.00;;;16.90
60966;BMP180;46834;51.100;6.886;2022-10-26T02:01:20;100947.00;;;16.90
60966;BMP180;46834;51.100;6.886;2022-10-26T02:04:16;100949.00;;;16.90
60966;BMP180;46834;51.100;6.886;2022-10-26T02:15:27;100922.00;;;16.90
60966;BMP180;46834;51.100;6.886;2022-10-26T02:18:03;100927.00;;;16.90
60966;BMP180;46834;51.100;6.886;2022-10-26T02:20:54;100930.00;;;16.90
60966;BMP180;46834;51.100;6.886;2022-10-26T02:23:25;100928.00;;;16.90
60966;BMP180;46834;51.100;6.886;2022-10-26T02:25:57;100925.00;;;16.90
60966;BMP180;46834;51.100;6.886;2022-10-26T02:28:31;100925.00;;;16.90
60966;BMP180;46834;51.100;6.886;2022-10-26T02:31:01;100924.00;;;17.00
60966;BMP180;46834;51.100;6.886;2022-10-26T02:33:33;100924.00;;;17.00
60966;BMP180;46834;51.100;6.886;2022-10-26T02:36:06;100918.00;;;17.00
60966;BMP180;46834;51.100;6.886;2022-10-26T02:38:34;100912.00;;;17.00
60966;BMP180;46834;51.100;6.886;2022-10-26T02:41:03;100911.00;;;17.00
60966;BMP180;46834;51.100;6.886;2022-10-26T02:43:36;100916.00;;;17.00
60966;BMP180;46834;51.100;6.886;2022-10-26T02:46:12;100903.00;;;17.00
60966;BMP180;46834;51.100;6.886;2022-10-26T02:48:39;100909.00;;;17.00
60966;BMP180;46834;51.100;6.886;2022-10-26T02:51:44;100906.00;;;17.00
60966;BMP180;46834;51.100;6.886;2022-10-26T02:57:00;100896.00;;;17.00
60966;BMP180;46834;51.100;6.886;2022-10-26T02:59:35;100897.00;;;17.00
60966;BMP180;46834;51.100;6.886;2022-10-26T03:02:04;100898.00;;;17.00
60966;BMP180;46834;51.100;6.886;2022-10-26T03:04:31;100895.00;;;17.10
60966;BMP180;46834;51.100;6.886;2022-10-26T03:06:57;100908.00;;;17.10
60966;BMP180;46834;51.100;6.886;2022-10-26T03:09:23;100903.00;;;17.10
60966;BMP180;46834;51.100;6.886;2022-10-26T03:11:49;100904.00;;;17.10
60966;BMP180;46834;51.100;6.886;2022-10-26T03:14:15;100907.00;;;17.10
60966;BMP180;46834;51.100;6.886;2022-10-26T03:16:41;100900.00;;;17.10
60966;BMP180;46834;51.100;6.886;2022-10-26T03:19:06;100900.00;;;17.10
60966;BMP180;46834;51.100;6.886;2022-10-26T03:21:32;100905.00;;;17.10
60966;BMP180;46834;51.100;6.886;2022-10-26T03:23:58;100904.00;;;17.10
60966;BMP180;46834;51.100;6.886;2022-10-26T03:26:23;100903.00;;;17.10
60966;BMP180;46834;51.100;6.886;2022-10-26T03:28:49;100890.00;;;17.20
60966;BMP180;46834;51.100;6.886;2022-10-26T03:31:15;100890.00;;;17.10
60966;BMP180;46834;51.100;6.886;2022-10-26T03:33:40;100903.00;;;17.20
60966;BMP180;46834;51.100;6.886;2022-10-26T03:36:06;100899.00;;;17.20
60966;BMP180;46834;51.100;6.886;2022-10-26T03:38:32;100906.00;;;17.20
60966;BMP180;46834;51.100;6.886;2022-10-26T03:40:58;100899.00;;;17.20
60966;BMP180;46834;51.100;6.886;2022-10-26T03:43:24;100905.00;;;17.20
60966;BMP180;46834;51.100;6.886;2022-10-26T03:45:49;100900.00;;;17.20
60966;BMP180;46834;51.100;6.886;2022-10-26T03:48:15;100905.00;;;17.20
60966;BMP180;46834;51.100;6.886;2022-10-26T03:50:41;100892.00;;;17.20
60966;BMP180;46834;51.100;6.886;2022-10-26T03:53:07;100899.00;;;17.20
60966;BMP180;46834;51.100;6.886;2022-10-26T03:55:33;100897.00;;;17.20
60966;BMP180;46834;51.100;6.886;2022-10-26T03:57:58;100902.00;;;17.20
60966;BMP180;46834;51.100;6.886;2022-10-26T04:00:24;100898.00;;;17.20
60966;BMP180;46834;51.100;6.886;2022-10-26T04:02:58;100907.00;;;17.10
60966;BMP180;46834;51.100;6.886;2022-10-26T04:05:27;100901.00;;;17.20
60966;BMP180;46834;51.100;6.886;2022-10-26T04:07:59;100895.00;;;17.20
60966;BMP180;46834;51.100;6.886;2022-10-26T04:10:27;100901.00;;;17.20
60966;BMP180;46834;51.100;6.886;2022-10-26T04:12:54;100889.00;;;17.20
60966;BMP180;46834;51.100;6.886;2022-10-26T04:15:21;100889.00;;;17.20
60966;BMP180;46834;51.100;6.886;2022-10-26T04:17:47;100889.00;;;17.20
60966;BMP180;46834;51.100;6.886;2022-10-26T04:20:13;100893.00;;;17.20
60966;BMP180;46834;51.100;6.886;2022-10-26T04:22:39;100906.00;;;17.30
60966;BMP180;46834;51.100;6.886;2022-10-26T04:25:06;100904.00;;;17.30
60966;BMP180;46834;51.100;6.886;2022-10-26T04:27:32;100901.00;;;17.30
60966;BMP180;46834;51.100;6.886;2022-10-26T04:29:58;100900.00;;;17.30
60966;BMP180;46834;51.100;6.886;2022-10-26T04:32:24;100895.00;;;17.30
60966;BMP180;46834;51.100;6.886;2022-10-26T04:34:49;100896.00;;;17.30
60966;BMP180;46834;51.100;6.886;2022-10-26T04:37:15;100905.00;;;17.30
60966;BMP180;46834;51.100;6.886;2022-10-26T04:39:40;100906.00;;;17.30
60966;BMP180;46834;51.100;6.886;2022-10-26T04:42:06;100904.00;;;17.30
60966;BMP180;46834;51.100;6.886;2022-10-26T04:44:32;100905.00;;;17.30
60966;BMP180;46834;51.100;6.886;2022-10-26T04:46:57;100908.00;;;17.30
60966;BMP180;46834;51.100;6.886;2022-10-26T04:49:23;100898.00;;;17.30
60966;BMP180;46834;51.100;6.886;2022-10-26T04:51:49;100902.00;;;17.30
60966;BMP180;46834;51.100;6.886;2022-10-26T04:54:15;100903.00;;;17.30
60966;BMP180;46834;51.100;6.886;2022-10-26T04:56:40;100893.00;;;17.40
60966;BMP180;46834;51.100;6.886;2022-10-26T04:59:06;100899.00;;;17.30
60966;BMP180;46834;51.100;6.886;2022-10-26T05:01:31;100903.00;;;17.30
60966;BMP180;46834;51.100;6.886;2022-10-26T05:03:57;100904.00;;;17.40
60966;BMP180;46834;51.100;6.886;2022-10-26T05:06:23;100892.00;;;17.40
60966;BMP180;46834;51.100;6.886;2022-10-26T05:08:49;100901.00;;;17.40
60966;BMP180;46834;51.100;6.886;2022-10-26T05:11:15;100897.00;;;17.40
60966;BMP180;46834;51.100;6.886;2022-10-26T05:13:40;100901.00;;;17.40
60966;BMP180;46834;51.100;6.886;2022-10-26T05:16:06;100891.00;;;17.40
60966;BMP180;46834;51.100;6.886;2022-10-26T05:18:32;100901.00;;;17.40
60966;BMP180;46834;51.100;6.886;2022-10-26T05:20:58;100905.00;;;17.40
60966;BMP180;46834;51.100;6.886;2022-10-26T05:23:23;100904.00;;;17.40
60966;BMP180;46834;51.100;6.886;2022-10-26T05:25:49;100894.00;;;17.40
60966;BMP180;46834;51.100;6.886;2022-10-26T05:28:16;100902.00;;;17.40
60966;BMP180;46834;51.100;6.886;2022-10-26T05:30:44;100891.00;;;17.40
60966;BMP180;46834;51.100;6.886;2022-10-26T05:33:12;100889.00;;;17.40
60966;BMP180;46834;51.100;6.886;2022-10-26T05:35:39;100883.00;;;17.40
60966;BMP180;46834;51.100;6.886;2022-10-26T05:38:16;100886.00;;;17.40
60966;BMP180;46834;51.100;6.886;2022-10-26T05:40:53;100886.00;;;17.40
60966;BMP180;46834;51.100;6.886;2022-10-26T05:43:21;100896.00;;;17.40
60966;BMP180;46834;51.100;6.886;2022-10-26T05:45:50;100883.00;;;17.40
60966;BMP180;46834;51.100;6.886;2022-10-26T05:48:16;100887.00;;;17.50
60966;BMP180;46834;51.100;6.886;2022-10-26T05:50:42;100879.00;;;17.50
60966;BMP180;46834;51.100;6.886;2022-10-26T05:53:07;100878.00;;;17.40
60966;BMP180;46834;51.100;6.886;2022-10-26T05:55:34;100881.00;;;17.50
60966;BMP180;46834;51.100;6.886;2022-10-26T05:58:00;100891.00;;;17.50
60966;BMP180;46834;51.100;6.886;2022-10-26T06:00:28;100889.00;;;17.50
60966;BMP180;46834;51.100;6.886;2022-10-26T06:05:57;100892.00;;;17.40
60966;BMP180;46834;51.100;6.886;2022-10-26T06:08:26;100902.00;;;17.40
60966;BMP180;46834;51.100;6.886;2022-10-26T06:10:56;100911.00;;;17.50
60966;BMP180;46834;51.100;6.886;2022-10-26T06:13:26;100918.00;;;17.50
60966;BMP180;46834;51.100;6.886;2022-10-26T06:21:53;100932.00;;;17.40
60966;BMP180;46834;51.100;6.886;2022-10-26T06:30:27;100933.00;;;17.50
60966;BMP180;46834;51.100;6.886;2022-10-26T06:32:53;100928.00;;;17.50
60966;BMP180;46834;51.100;6.886;2022-10-26T06:38:16;100933.00;;;17.50
60966;BMP180;46834;51.100;6.886;2022-10-26T06:40:48;100919.00;;;17.50
60966;BMP180;46834;51.100;6.886;2022-10-26T06:43:28;100931.00;;;17.50
60966;BMP180;46834;51.100;6.886;2022-10-26T06:46:25;100912.00;;;17.40
60966;BMP180;46834;51.100;6.886;2022-10-26T06:51:55;100917.00;;;17.50
60966;BMP180;46834;51.100;6.886;2022-10-26T06:54:49;100926.00;;;17.50
60966;BMP180;46834;51.100;6.886;2022-10-26T06:57:19;100911.00;;;17.50
60966;BMP180;46834;51.100;6.886;2022-10-26T06:59:51;100921.00;;;17.50
60966;BMP180;46834;51.100;6.886;2022-10-26T07:02:18;100918.00;;;17.50
60966;BMP180;46834;51.100;6.886;2022-10-26T07:04:44;100911.00;;;17.50
60966;BMP180;46834;51.100;6.886;2022-10-26T07:07:15;100910.00;;;17.50
60966;BMP180;46834;51.100;6.886;2022-10-26T07:09:41;100928.00;;;17.80
60966;BMP180;46834;51.100;6.886;2022-10-26T07:12:07;100935.00;;;17.70
60966;BMP180;46834;51.100;6.886;2022-10-26T07:14:32;100943.00;;;17.70
60966;BMP180;46834;51.100;6.886;2022-10-26T07:16:59;100940.00;;;17.70
60966;BMP180;46834;51.100;6.886;2022-10-26T07:19:25;100945.00;;;17.70
60966;BMP180;46834;51.100;6.886;2022-10-26T07:21:53;100946.00;;;17.70
60966;BMP180;46834;51.100;6.886;2022-10-26T07:24:18;100947.00;;;17.70
60966;BMP180;46834;51.100;6.886;2022-10-26T07:26:44;100950.00;;;17.70
60966;BMP180;46834;51.100;6.886;2022-10-26T07:29:09;100955.00;;;17.70
60966;BMP180;46834;51.100;6.886;2022-10-26T07:31:35;100954.00;;;17.70
60966;BMP180;46834;51.100;6.886;2022-10-26T07:34:01;100959.00;;;17.70
60966;BMP180;46834;51.100;6.886;2022-10-26T07:36:28;100961.00;;;17.80
60966;BMP180;46834;51.100;6.886;2022-10-26T07:38:54;100951.00;;;17.80
60966;BMP180;46834;51.100;6.886;2022-10-26T07:41:19;100963.00;;;17.80
60966;BMP180;46834;51.100;6.886;2022-10-26T07:43:45;100962.00;;;17.80
60966;BMP180;46834;51.100;6.886;2022-10-26T07:46:13;100956.00;;;17.90
60966;BMP180;46834;51.100;6.886;2022-10-26T07:48:41;100970.00;;;17.90
60966;BMP180;46834;51.100;6.886;2022-10-26T07:51:07;100964.00;;;17.90
60966;BMP180;46834;51.100;6.886;2022-10-26T07:53:33;100961.00;;;17.90
60966;BMP180;46834;51.100;6.886;2022-10-26T07:55:58;100964.00;;;17.90
60966;BMP180;46834;51.100;6.886;2022-10-26T07:58:24;100958.00;;;17.90
60966;BMP180;46834;51.100;6.886;2022-10-26T08:00:52;100952.00;;;17.90
60966;BMP180;46834;51.100;6.886;2022-10-26T08:03:19;100958.00;;;17.90
60966;BMP180;46834;51.100;6.886;2022-10-26T08:05:49;100963.00;;;17.90
60966;BMP180;46834;51.100;6.886;2022-10-26T08:08:19;100961.00;;;17.90
60966;BMP180;46834;51.100;6.886;2022-10-26T08:10:45;100974.00;;;18.00
60966;BMP180;46834;51.100;6.886;2022-10-26T08:13:12;100966.00;;;18.00
60966;BMP180;46834;51.100;6.886;2022-10-26T08:15:39;100972.00;;;18.00
60966;BMP180;46834;51.100;6.886;2022-10-26T08:18:06;100970.00;;;18.00
60966;BMP180;46834;51.100;6.886;2022-10-26T08:20:31;100970.00;;;18.10
60966;BMP180;46834;51.100;6.886;2022-10-26T08:22:58;100984.00;;;18.10
60966;BMP180;46834;51.100;6.886;2022-10-26T08:25:25;101002.00;;;18.40
60966;BMP180;46834;51.100;6.886;2022-10-26T08:27:52;100993.00;;;18.60
60966;BMP180;46834;51.100;6.886;2022-10-26T08:30:18;101002.00;;;18.80
60966;BMP180;46834;51.100;6.886;2022-10-26T08:32:44;101006.00;;;18.60
60966;BMP180;46834;51.100;6.886;2022-10-26T08:35:10;101016.00;;;18.50
60966;BMP180;46834;51.100;6.886;2022-10-26T08:37:36;101015.00;;;18.90
60966;BMP180;46834;51.100;6.886;2022-10-26T08:40:03;101010.00;;;18.80
60966;BMP180;46834;51.100;6.886;2022-10-26T08:42:39;101021.00;;;18.70
60966;BMP180;46834;51.100;6.886;2022-10-26T08:45:24;101018.00;;;18.60
60966;BMP180;46834;51.100;6.886;2022-10-26T08:47:58;101022.00;;;18.60
60966;BMP180;46834;51.100;6.886;2022-10-26T08:50:32;101015.00;;;18.60
60966;BMP180;46834;51.100;6.886;2022-10-26T08:53:19;101017.00;;;18.60
60966;BMP180;46834;51.100;6.886;2022-10-26T08:56:05;101015.00;;;18.60
60966;BMP180;46834;51.100;6.886;2022-10-26T08:58:38;101003.00;;;18.60
60966;BMP180;46834;51.100;6.886;2022-10-26T09:01:07;101006.00;;;18.70
60966;BMP180;46834;51.100;6.886;2022-10-26T09:03:33;101017.00;;;18.70
60966;BMP180;46834;51.100;6.886;2022-10-26T09:09:19;101035.00;;;18.60
60966;BMP180;46834;51.100;6.886;2022-10-26T09:11:54;101042.00;;;18.70
60966;BMP180;46834;51.100;6.886;2022-10-26T09:15:07;101058.00;;;19.10
60966;BMP180;46834;51.100;6.886;2022-10-26T09:18:00;101050.00;;;19.40
60966;BMP180;46834;51.100;6.886;2022-10-26T09:20:58;101065.00;;;19.20
60966;BMP180;46834;51.100;6.886;2022-10-26T09:26:00;101074.00;;;19.40
60966;BMP180;46834;51.100;6.886;2022-10-26T09:28:32;101082.00;;;19.30
60966;BMP180;46834;51.100;6.886;2022-10-26T09:31:01;101079.00;;;19.30
60966;BMP180;46834;51.100;6.886;2022-10-26T09:33:30;101100.00;;;19.30
60966;BMP180;46834;51.100;6.886;2022-10-26T09:36:07;101099.00;;;19.30
60966;BMP180;46834;51.100;6.886;2022-10-26T09:39:23;101094.00;;;19.30
60966;BMP180;46834;51.100;6.886;2022-10-26T09:41:58;101096.00;;;19.40
60966;BMP180;46834;51.100;6.886;2022-10-26T09:44:33;101110.00;;;19.40
60966;BMP180;46834;51.100;6.886;2022-10-26T09:47:45;101106.00;;;19.40
60966;BMP180;46834;51.100;6.886;2022-10-26T09:50:32;101114.00;;;19.50
60966;BMP180;46834;51.100;6.886;2022-10-26T09:52:59;101107.00;;;19.60
60966;BMP180;46834;51.100;6.886;2022-10-26T09:55:25;101106.00;;;19.80
60966;BMP180;46834;51.100;6.886;2022-10-26T09:57:55;101123.00;;;20.20
60966;BMP180;46834;51.100;6.886;2022-10-26T10:00:26;101117.00;;;20.30
60966;BMP180;46834;51.100;6.886;2022-10-26T10:02:57;101124.00;;;20.20
60966;BMP180;46834;51.100;6.886;2022-10-26T10:05:30;101117.00;;;20.10
60966;BMP180;46834;51.100;6.886;2022-10-26T10:08:21;101130.00;;;20.30
60966;BMP180;46834;51.100;6.886;2022-10-26T10:13:27;101133.00;;;20.40
60966;BMP180;46834;51.100;6.886;2022-10-26T10:16:05;101130.00;;;20.30
60966;BMP180;46834;51.100;6.886;2022-10-26T10:18:34;101125.00;;;20.30
60966;BMP180;46834;51.100;6.886;2022-10-26T10:21:01;101130.00;;;20.30
60966;BMP180;46834;51.100;6.886;2022-10-26T10:23:32;101144.00;;;20.30
60966;BMP180;46834;51.100;6.886;2022-10-26T10:26:08;101145.00;;;20.30
60966;BMP180;46834;51.100;6.886;2022-10-26T10:28:36;101143.00;;;20.30
60966;BMP180;46834;51.100;6.886;2022-10-26T10:31:14;101152.00;;;20.30
60966;BMP180;46834;51.100;6.886;2022-10-26T10:33:42;101164.00;;;20.30
60966;BMP180;46834;51.100;6.886;2022-10-26T10:36:17;101170.00;;;20.40
60966;BMP180;46834;51.100;6.886;2022-10-26T10:38:47;101159.00;;;20.40
60966;BMP180;46834;51.100;6.886;2022-10-26T10:41:27;101173.00;;;20.40
60966;BMP180;46834;51.100;6.886;2022-10-26T10:44:17;101178.00;;;20.40
60966;BMP180;46834;51.100;6.886;2022-10-26T10:46:46;101185.00;;;20.50
60966;BMP180;46834;51.100;6.886;2022-10-26T10:49:24;101166.00;;;20.50
60966;BMP180;46834;51.100;6.886;2022-10-26T10:51:50;101187.00;;;20.60
60966;BMP180;46834;51.100;6.886;2022-10-26T10:57:43;101192.00;;;20.70
60966;BMP180;46834;51.100;6.886;2022-10-26T11:00:23;101197.00;;;20.80
60966;BMP180;46834;51.100;6.886;2022-10-26T11:03:14;101202.00;;;20.90
60966;BMP180;46834;51.100;6.886;2022-10-26T11:11:22;101193.00;;;21.20
60966;BMP180;46834;51.100;6.886;2022-10-26T11:13:59;101193.00;;;21.40
60966;BMP180;46834;51.100;6.886;2022-10-26T11:16:43;101179.00;;;21.50
60966;BMP180;46834;51.100;6.886;2022-10-26T11:19:48;101190.00;;;21.60
60966;BMP180;46834;51.100;6.886;2022-10-26T11:22:20;101198.00;;;21.70
60966;BMP180;46834;51.100;6.886;2022-10-26T11:25:03;101197.00;;;21.80
60966;BMP180;46834;51.100;6.886;2022-10-26T11:27:46;101190.00;;;21.90
60966;BMP180;46834;51.100;6.886;2022-10-26T11:30:24;101191.00;;;22.00
60966;BMP180;46834;51.100;6.886;2022-10-26T11:38:38;101194.00;;;22.20
60966;BMP180;46834;51.100;6.886;2022-10-26T11:41:28;101194.00;;;22.30
60966;BMP180;46834;51.100;6.886;2022-10-26T11:44:51;101188.00;;;22.30
60966;BMP180;46834;51.100;6.886;2022-10-26T11:47:50;101193.00;;;22.40
60966;BMP180;46834;51.100;6.886;2022-10-26T11:50:24;101195.00;;;22.50
60966;BMP180;46834;51.100;6.886;2022-10-26T11:55:20;101186.00;;;22.60
60966;BMP180;46834;51.100;6.886;2022-10-26T11:57:47;101197.00;;;22.70
60966;BMP180;46834;51.100;6.886;2022-10-26T12:00:19;101196.00;;;22.70
60966;BMP180;46834;51.100;6.886;2022-10-26T12:02:51;101201.00;;;22.80
60966;BMP180;46834;51.100;6.886;2022-10-26T12:05:47;101195.00;;;22.80
60966;BMP180;46834;51.100;6.886;2022-10-26T12:08:28;101204.00;;;22.80
60966;BMP180;46834;51.100;6.886;2022-10-26T12:14:07;101209.00;;;22.80
60966;BMP180;46834;51.100;6.886;2022-10-26T12:17:05;101206.00;;;22.90
60966;BMP180;46834;51.100;6.886;2022-10-26T12:22:56;101219.00;;;23.00
60966;BMP180;46834;51.100;6.886;2022-10-26T12:25:22;101212.00;;;23.00
60966;BMP180;46834;51.100;6.886;2022-10-26T12:27:52;101225.00;;;23.00
60966;BMP180;46834;51.100;6.886;2022-10-26T12:35:40;101236.00;;;23.10
60966;BMP180;46834;51.100;6.886;2022-10-26T12:43:39;101247.00;;;23.20
60966;BMP180;46834;51.100;6.886;2022-10-26T12:48:48;101240.00;;;23.30
60966;BMP180;46834;51.100;6.886;2022-10-26T12:54:38;101258.00;;;23.30
60966;BMP180;46834;51.100;6.886;2022-10-26T12:57:23;101258.00;;;23.30
60966;BMP180;46834;51.100;6.886;2022-10-26T13:00:02;101254.00;;;23.40
60966;BMP180;46834;51.100;6.886;2022-10-26T13:08:46;101265.00;;;23.40
60966;BMP180;46834;51.100;6.886;2022-10-26T13:11:27;101263.00;;;23.40
60966;BMP180;46834;51.100;6.886;2022-10-26T13:13:57;101266.00;;;23.50
60966;BMP180;46834;51.100;6.886;2022-10-26T13:16:28;101261.00;;;23.50
60966;BMP180;46834;51.100;6.886;2022-10-26T13:18:54;101272.00;;;23.50
60966;BMP180;46834;51.100;6.886;2022-10-26T13:21:22;101272.00;;;23.60
60966;BMP180;46834;51.100;6.886;2022-10-26T13:23:58;101270.00;;;23.50
60966;BMP180;46834;51.100;6.886;2022-10-26T13:26:31;101273.00;;;23.50
60966;BMP180;46834;51.100;6.886;2022-10-26T13:29:02;101270.00;;;23.50
60966;BMP180;46834;51.100;6.886;2022-10-26T13:34:08;101281.00;;;23.60
60966;BMP180;46834;51.100;6.886;2022-10-26T13:39:39;101296.00;;;23.50
60966;BMP180;46834;51.100;6.886;2022-10-26T13:42:12;101292.00;;;23.60
60966;BMP180;46834;51.100;6.886;2022-10-26T13:45:02;101290.00;;;23.50
60966;BMP180;46834;51.100;6.886;2022-10-26T13:47:44;101291.00;;;23.60
60966;BMP180;46834;51.100;6.886;2022-10-26T13:50:25;101296.00;;;23.60
60966;BMP180;46834;51.100;6.886;2022-10-26T13:52:58;101300.00;;;23.60
60966;BMP180;46834;51.100;6.886;2022-10-26T13:55:35;101297.00;;;23.60
60966;BMP180;46834;51.100;6.886;2022-10-26T13:58:36;101300.00;;;23.60
60966;BMP180;46834;51.100;6.886;2022-10-26T14:01:24;101297.00;;;23.60
60966;BMP180;46834;51.100;6.886;2022-10-26T14:03:50;101297.00;;;23.60
60966;BMP180;46834;51.100;6.886;2022-10-26T14:06:30;101302.00;;;23.60
60966;BMP180;46834;51.100;6.886;2022-10-26T14:09:02;101301.00;;;23.60
60966;BMP180;46834;51.100;6.886;2022-10-26T14:11:44;101305.00;;;23.60
60966;BMP180;46834;51.100;6.886;2022-10-26T14:14:18;101306.00;;;23.60
60966;BMP180;46834;51.100;6.886;2022-10-26T14:16:46;101306.00;;;23.70
60966;BMP180;46834;51.100;6.886;2022-10-26T14:19:25;101310.00;;;23.60
60966;BMP180;46834;51.100;6.886;2022-10-26T14:21:52;101305.00;;;23.60
60966;BMP180;46834;51.100;6.886;2022-10-26T14:24:37;101301.00;;;23.60
60966;BMP180;46834;51.100;6.886;2022-10-26T14:27:19;101312.00;;;23.60
60966;BMP180;46834;51.100;6.886;2022-10-26T14:29:45;101310.00;;;23.60
60966;BMP180;46834;51.100;6.886;2022-10-26T14:32:30;101310.00;;;23.60
60966;BMP180;46834;51.100;6.886;2022-10-26T14:35:01;101316.00;;;23.60
60966;BMP180;46834;51.100;6.886;2022-10-26T14:37:38;101321.00;;;23.60
60966;BMP180;46834;51.100;6.886;2022-10-26T14:40:20;101315.00;;;23.50
60966;BMP180;46834;51.100;6.886;2022-10-26T14:42:51;101306.00;;;23.50
60966;BMP180;46834;51.100;6.886;2022-10-26T14:45:33;101313.00;;;23.50
60966;BMP180;46834;51.100;6.886;2022-10-26T14:48:02;101318.00;;;23.60
60966;BMP180;46834;51.100;6.886;2022-10-26T14:50:30;101314.00;;;23.60
60966;BMP180;46834;51.100;6.886;2022-10-26T14:55:49;101313.00;;;23.50
60966;BMP180;46834;51.100;6.886;2022-10-26T14:58:28;101319.00;;;23.50
60966;BMP180;46834;51.100;6.886;2022-10-26T15:04:06;101331.00;;;23.50
60966;BMP180;46834;51.100;6.886;2022-10-26T15:06:42;101334.00;;;23.50
60966;BMP180;46834;51.100;6.886;2022-10-26T15:09:38;101326.00;;;23.50
60966;BMP180;46834;51.100;6.886;2022-10-26T15:12:05;101326.00;;;23.50
60966;BMP180;46834;51.100;6.886;2022-10-26T15:14:32;101341.00;;;23.50
60966;BMP180;46834;51.100;6.886;2022-10-26T15:16:59;101349.00;;;23.50
60966;BMP180;46834;51.100;6.886;2022-10-26T15:19:26;101348.00;;;23.50
60966;BMP180;46834;51.100;6.886;2022-10-26T15:21:52;101340.00;;;23.50
60966;BMP180;46834;51.100;6.886;2022-10-26T15:24:34;101357.00;;;23.40
60966;BMP180;46834;51.100;6.886;2022-10-26T15:27:00;101358.00;;;23.50
60966;BMP180;46834;51.100;6.886;2022-10-26T15:29:42;101372.00;;;23.40
60966;BMP180;46834;51.100;6.886;2022-10-26T15:32:31;101377.00;;;23.40
60966;BMP180;46834;51.100;6.886;2022-10-26T15:35:30;101382.00;;;23.30
60966;BMP180;46834;51.100;6.886;2022-10-26T15:37:58;101383.00;;;23.40
60966;BMP180;46834;51.100;6.886;2022-10-26T15:40:26;101380.00;;;23.30
60966;BMP180;46834;51.100;6.886;2022-10-26T15:42:54;101386.00;;;23.30
60966;BMP180;46834;51.100;6.886;2022-10-26T15:45:26;101389.00;;;23.20
60966;BMP180;46834;51.100;6.886;2022-10-26T15:47:55;101396.00;;;23.20
60966;BMP180;46834;51.100;6.886;2022-10-26T15:50:25;101405.00;;;23.20
60966;BMP180;46834;51.100;6.886;2022-10-26T15:53:07;101403.00;;;23.20
60966;BMP180;46834;51.100;6.886;2022-10-26T15:55:35;101409.00;;;23.20
60966;BMP180;46834;51.100;6.886;2022-10-26T15:58:00;101413.00;;;23.20
60966;BMP180;46834;51.100;6.886;2022-10-26T16:00:26;101411.00;;;23.20
60966;BMP180;46834;51.100;6.886;2022-10-26T16:02:52;101397.00;;;23.10
60966;BMP180;46834;51.100;6.886;2022-10-26T16:05:18;101418.00;;;23.10
60966;BMP180;46834;51.100;6.886;2022-10-26T16:07:46;101412.00;;;23.10
60966;BMP180;46834;51.100;6.886;2022-10-26T16:10:20;101424.00;;;23.10
60966;BMP180;46834;51.100;6.886;2022-10-26T16:12:47;101434.00;;;23.10
60966;BMP180;46834;51.100;6.886;2022-10-26T16:15:21;101425.00;;;23.00